createdAt,value
2023-02-17T00:01:37.467Z,4.27
2023-02-17T00:04:08.017Z,4.33
2023-02-17T00:06:49.167Z,4.37
2023-02-17T00:09:31.433Z,4.27
2023-02-17T00:12:01.973Z,4.20
2023-02-17T00:14:40.084Z,4.43
2023-02-17T00:17:09.117Z,4.40
2023-02-17T00:19:44.135Z,4.03
2023-02-17T00:22:12.661Z,4.40
2023-02-17T00:24:48.161Z,4.27
2023-02-17T00:27:21.110Z,4.17
2023-02-17T00:29:58.916Z,4.00
2023-02-17T00:32:27.859Z,4.20
2023-02-17T00:35:05.205Z,4.20
2023-02-17T00:37:40.763Z,4.67
2023-02-17T00:40:17.487Z,4.60
2023-02-17T00:42:49.234Z,4.40
2023-02-17T00:45:25.239Z,4.63
2023-02-17T00:47:54.281Z,4.10
2023-02-17T00:50:30.245Z,4.47
2023-02-17T00:52:58.872Z,4.57
2023-02-17T00:55:34.254Z,4.60
2023-02-17T00:58:04.662Z,4.40
2023-02-17T01:00:40.211Z,4.17
2023-02-17T01:03:09.032Z,4.17
2023-02-17T01:05:52.189Z,4.10
2023-02-17T01:08:27.716Z,4.10
2023-02-17T01:11:03.261Z,3.77
2023-02-17T01:13:33.696Z,3.93
2023-02-17T01:16:09.437Z,4.30
2023-02-17T01:18:38.107Z,4.23
2023-02-17T01:21:14.257Z,4.40
2023-02-17T01:23:42.965Z,4.57
2023-02-17T01:26:22.283Z,4.50
2023-02-17T01:28:53.452Z,4.60
2023-02-17T01:31:30.549Z,4.87
2023-02-17T01:34:01.583Z,4.50
2023-02-17T01:36:39.805Z,4.70
2023-02-17T01:39:08.469Z,4.73
2023-02-17T01:41:44.246Z,4.80
2023-02-17T01:44:18.183Z,4.73
2023-02-17T01:46:54.347Z,4.60
2023-02-17T01:49:30.173Z,4.70
2023-02-17T01:52:11.569Z,4.80
2023-02-17T01:54:44.479Z,4.30
2023-02-17T01:57:21.560Z,4.53
2023-02-17T01:59:52.812Z,4.30
2023-02-17T02:02:28.676Z,4.93
2023-02-17T02:05:17.523Z,4.13
2023-02-17T02:07:54.390Z,4.40
2023-02-17T02:10:23.160Z,4.00
2023-02-17T02:12:58.376Z,3.77
2023-02-17T02:15:42.246Z,4.07
2023-02-17T02:18:27.330Z,3.80
2023-02-17T02:21:37.052Z,3.90
2023-02-17T02:24:32.614Z,4.10
2023-02-17T02:27:42.275Z,4.27
2023-02-17T02:30:37.059Z,3.50
2023-02-17T02:33:20.350Z,4.30
2023-02-17T02:35:57.368Z,4.30
2023-02-17T02:38:38.406Z,4.00
2023-02-17T02:41:11.400Z,4.23
2023-02-17T02:43:47.600Z,4.27
2023-02-17T02:46:16.264Z,5.10
2023-02-17T02:48:53.278Z,4.60
2023-02-17T02:51:39.942Z,5.40
2023-02-17T02:54:38.605Z,6.43
2023-02-17T02:57:29.615Z,5.40
2023-02-17T03:00:13.192Z,4.60
2023-02-17T03:02:54.698Z,5.30
2023-02-17T03:05:51.635Z,5.53
2023-02-17T03:08:34.461Z,5.23
2023-02-17T03:11:03.122Z,5.07
2023-02-17T03:13:44.398Z,6.20
2023-02-17T03:16:15.171Z,4.57
2023-02-17T03:18:50.402Z,4.80
2023-02-17T03:21:20.833Z,4.90
2023-02-17T03:23:56.408Z,4.43
2023-02-17T03:26:25.419Z,5.03
2023-02-17T03:29:00.399Z,6.23
2023-02-17T03:31:30.895Z,5.47
2023-02-17T03:34:06.510Z,4.20
2023-02-17T03:36:39.437Z,4.30
2023-02-17T03:39:16.385Z,4.43
2023-02-17T03:41:45.074Z,4.07
2023-02-17T03:44:20.396Z,4.10
2023-02-17T03:46:53.273Z,4.17
2023-02-17T03:49:28.349Z,4.00
2023-02-17T03:51:59.860Z,4.00
2023-02-17T03:54:36.341Z,4.03
2023-02-17T03:57:05.399Z,3.77
2023-02-17T03:59:41.647Z,4.53
2023-02-17T04:02:11.624Z,4.33
2023-02-17T04:04:46.343Z,4.93
2023-02-17T04:07:36.394Z,4.40
2023-02-17T04:10:11.468Z,4.40
2023-02-17T04:12:41.120Z,3.87
2023-02-17T04:15:17.413Z,4.10
2023-02-17T04:17:46.278Z,3.87
2023-02-17T04:20:22.414Z,4.57
2023-02-17T04:22:54.648Z,4.00
2023-02-17T04:25:30.653Z,3.77
2023-02-17T04:27:59.200Z,3.87
2023-02-17T04:30:34.519Z,3.90
2023-02-17T04:33:03.954Z,4.00
2023-02-17T04:35:39.652Z,4.27
2023-02-17T04:38:10.841Z,4.23
2023-02-17T04:40:46.698Z,4.70
2023-02-17T04:43:15.253Z,4.63
2023-02-17T04:45:50.665Z,5.30
2023-02-17T04:48:19.659Z,5.33
2023-02-17T04:50:54.407Z,4.40
2023-02-17T04:53:24.963Z,4.33
2023-02-17T04:56:01.429Z,4.70
2023-02-17T04:58:31.870Z,4.77
2023-02-17T05:01:08.450Z,6.77
2023-02-17T05:03:37.281Z,4.87
2023-02-17T05:06:13.444Z,4.90
2023-02-17T05:08:43.614Z,5.20
2023-02-17T05:11:18.467Z,5.37
2023-02-17T05:13:53.502Z,5.67
2023-02-17T05:16:22.720Z,5.30
2023-02-17T05:18:58.728Z,5.43
2023-02-17T05:21:27.226Z,5.80
2023-02-17T05:24:03.614Z,5.17
2023-02-17T05:26:32.696Z,5.00
2023-02-17T05:29:07.477Z,5.23
2023-02-17T05:31:36.646Z,5.47
2023-02-17T05:34:11.825Z,5.67
2023-02-17T05:36:40.680Z,5.37
2023-02-17T05:39:17.467Z,5.30
2023-02-17T05:41:46.287Z,5.73
2023-02-17T05:44:21.505Z,5.47
2023-02-17T05:46:50.272Z,5.27
2023-02-17T05:49:25.475Z,5.57
2023-02-17T05:51:54.237Z,5.17
2023-02-17T05:54:30.494Z,5.87
2023-02-17T05:56:59.069Z,5.20
2023-02-17T05:59:34.523Z,5.90
2023-02-17T06:02:03.314Z,5.53
2023-02-17T06:04:38.908Z,5.77
2023-02-17T06:07:16.133Z,5.20
2023-02-17T06:09:52.510Z,5.00
2023-02-17T06:12:21.151Z,4.97
2023-02-17T06:14:56.770Z,4.50
2023-02-17T06:17:25.092Z,4.83
2023-02-17T06:20:00.750Z,4.93
2023-02-17T06:22:30.976Z,6.50
2023-02-17T06:25:07.759Z,4.60
2023-02-17T06:27:37.009Z,5.53
2023-02-17T06:30:13.634Z,4.90
2023-02-17T06:35:32.500Z,5.10
2023-02-17T06:38:00.811Z,4.87
2023-02-17T06:40:37.465Z,5.30
2023-02-17T06:43:07.467Z,5.10
2023-02-17T06:45:42.491Z,5.00
2023-02-17T06:48:10.878Z,5.20
2023-02-17T06:50:45.446Z,5.23
2023-02-17T06:53:13.673Z,5.70
2023-02-17T06:55:51.439Z,5.23
2023-02-17T06:58:20.666Z,5.30
2023-02-17T07:00:55.485Z,4.90
2023-02-17T07:03:23.731Z,5.27
2023-02-17T07:05:58.444Z,5.37
2023-02-17T07:08:26.678Z,5.70
2023-02-17T07:11:02.489Z,5.00
2023-02-17T07:13:30.726Z,5.53
2023-02-17T07:16:05.910Z,5.80
2023-02-17T07:18:34.858Z,5.50
2023-02-17T07:21:09.558Z,5.73
2023-02-17T07:23:38.605Z,5.27
2023-02-17T07:26:16.501Z,5.20
2023-02-17T07:28:44.931Z,4.83
2023-02-17T07:31:21.606Z,5.10
2023-02-17T07:34:02.696Z,5.20
2023-02-17T07:36:38.479Z,5.00
2023-02-17T07:39:07.091Z,5.87
2023-02-17T07:41:43.554Z,5.33
2023-02-17T07:44:12.332Z,4.80
2023-02-17T07:46:47.506Z,4.77
2023-02-17T07:49:15.712Z,5.30
2023-02-17T07:51:50.541Z,4.93
2023-02-17T07:54:19.014Z,6.70
2023-02-17T07:56:55.504Z,4.53
2023-02-17T07:59:23.689Z,5.07
2023-02-17T08:01:58.557Z,5.10
2023-02-17T08:04:27.100Z,5.07
2023-02-17T08:07:01.511Z,4.70
2023-02-17T08:09:53.517Z,4.70
2023-02-17T08:12:40.930Z,4.87
2023-02-17T08:15:18.532Z,4.77
2023-02-17T08:17:50.944Z,4.53
2023-02-17T08:20:26.551Z,4.63
2023-02-17T08:22:54.754Z,4.90
2023-02-17T08:25:29.554Z,5.50
2023-02-17T08:27:59.133Z,5.33
2023-02-17T08:30:33.824Z,6.50
2023-02-17T08:33:02.110Z,6.30
2023-02-17T08:35:43.775Z,5.90
2023-02-17T08:38:12.116Z,6.47
2023-02-17T08:40:46.529Z,5.47
2023-02-17T08:43:16.283Z,6.03
2023-02-17T08:45:50.690Z,5.63
2023-02-17T08:48:18.974Z,6.43
2023-02-17T08:50:55.619Z,6.10
2023-02-17T08:53:23.896Z,6.37
2023-02-17T08:55:58.852Z,6.23
2023-02-17T08:58:28.497Z,6.30
2023-02-17T09:01:03.619Z,5.73
2023-02-17T09:03:34.212Z,5.67
2023-02-17T09:06:09.732Z,5.57
2023-02-17T09:08:39.394Z,5.63
2023-02-17T09:11:14.607Z,5.10
2023-02-17T09:13:44.450Z,4.77
2023-02-17T09:16:19.611Z,4.80
2023-02-17T09:18:47.976Z,4.77
2023-02-17T09:21:23.627Z,4.70
2023-02-17T09:23:53.760Z,5.33
2023-02-17T09:26:29.690Z,4.73
2023-02-17T09:28:59.249Z,4.17
2023-02-17T09:31:35.702Z,4.00
2023-02-17T09:34:10.884Z,4.30
2023-02-17T09:36:47.624Z,4.00
2023-02-17T09:39:15.884Z,3.10
2023-02-17T09:41:53.642Z,3.77
2023-02-17T09:44:26.260Z,3.50
2023-02-17T09:47:07.702Z,2.77
2023-02-17T09:49:40.686Z,2.93
2023-02-17T09:52:20.675Z,2.83
2023-02-17T09:55:00.762Z,2.63
2023-02-17T09:57:38.742Z,2.30
2023-02-17T10:00:14.168Z,2.47
2023-02-17T10:02:54.646Z,2.37
2023-02-17T10:05:26.877Z,2.40
2023-02-17T10:08:07.640Z,2.00
2023-02-17T10:10:41.138Z,2.30
2023-02-17T10:13:17.670Z,2.73
2023-02-17T10:15:52.137Z,1.53
2023-02-17T10:18:33.727Z,2.93
2023-02-17T10:21:10.683Z,2.10
2023-02-17T10:23:47.675Z,2.17
2023-02-17T10:26:25.142Z,2.43
2023-02-17T10:29:01.728Z,3.83
2023-02-17T10:31:41.753Z,2.17
2023-02-17T10:34:24.709Z,1.30
2023-02-17T10:37:02.976Z,2.30
2023-02-17T10:39:54.642Z,1.73
2023-02-17T10:42:34.668Z,1.30
2023-02-17T10:45:07.180Z,1.70
2023-02-17T10:47:44.700Z,1.60
2023-02-17T10:50:20.903Z,2.37
2023-02-17T10:52:56.669Z,2.13
2023-02-17T10:55:33.061Z,2.37
2023-02-17T10:58:14.695Z,1.60
2023-02-17T11:00:44.417Z,2.63
2023-02-17T11:03:29.733Z,1.63
2023-02-17T11:06:00.687Z,2.47
2023-02-17T11:08:42.715Z,2.70
2023-02-17T11:11:18.627Z,2.13
2023-02-17T11:14:08.694Z,1.30
2023-02-17T11:16:40.170Z,1.80
2023-02-17T11:19:30.702Z,1.57
2023-02-17T11:22:00.875Z,1.43
2023-02-17T11:24:36.702Z,3.17
2023-02-17T11:27:09.610Z,2.00
2023-02-17T11:29:44.853Z,1.53
2023-02-17T11:32:13.973Z,1.73
2023-02-17T11:34:59.689Z,1.40
2023-02-17T11:37:43.274Z,1.50
2023-02-17T11:40:31.726Z,3.27
2023-02-17T11:43:03.865Z,2.40
2023-02-17T11:45:46.782Z,2.70
2023-02-17T11:48:34.251Z,1.43
2023-02-17T11:51:18.747Z,2.47
2023-02-17T11:53:58.135Z,2.43
2023-02-17T11:56:37.703Z,1.93
2023-02-17T11:59:34.746Z,3.33
2023-02-17T12:02:17.117Z,3.70
2023-02-17T12:05:02.164Z,1.47
2023-02-17T12:07:47.707Z,1.40
2023-02-17T12:10:33.802Z,4.00
2023-02-17T12:13:18.312Z,1.70
2023-02-17T12:16:07.003Z,1.20
2023-02-17T12:18:45.880Z,2.30
2023-02-17T12:21:27.719Z,1.37
2023-02-17T12:24:15.111Z,2.13
2023-02-17T12:26:53.738Z,2.67
2023-02-17T12:29:34.188Z,1.53
2023-02-17T12:32:32.781Z,1.10
2023-02-17T12:35:12.472Z,1.70
2023-02-17T12:37:59.770Z,1.63
2023-02-17T12:40:38.712Z,2.40
2023-02-17T12:43:26.808Z,2.63
2023-02-17T12:45:58.067Z,4.10
2023-02-17T12:48:51.764Z,1.83
2023-02-17T12:51:31.315Z,3.17
2023-02-17T12:54:12.752Z,1.20
2023-02-17T12:57:12.788Z,1.03
2023-02-17T12:59:42.274Z,2.97
2023-02-17T13:02:19.856Z,2.00
2023-02-17T13:04:52.936Z,2.70
2023-02-17T13:07:54.919Z,2.03
2023-02-17T13:10:32.221Z,2.30
2023-02-17T13:13:10.831Z,2.47
2023-02-17T13:15:42.906Z,3.60
2023-02-17T13:18:21.847Z,4.93
2023-02-17T13:21:17.001Z,1.47
2023-02-17T13:23:53.794Z,2.43
2023-02-17T13:26:31.965Z,1.13
2023-02-17T13:29:40.796Z,2.13
2023-02-17T13:32:13.354Z,3.37
2023-02-17T13:34:50.846Z,1.30
2023-02-17T13:37:33.380Z,1.30
2023-02-17T13:40:09.819Z,2.47
2023-02-17T13:42:40.094Z,1.60
2023-02-17T13:45:31.807Z,1.00
2023-02-17T13:48:01.526Z,1.03
2023-02-17T13:50:39.833Z,1.03
2023-02-17T13:53:23.497Z,4.33
2023-02-17T13:55:58.980Z,1.03
2023-02-17T13:58:31.487Z,1.67
2023-02-17T14:01:13.045Z,1.67
2023-02-17T14:03:47.219Z,2.10
2023-02-17T14:06:33.832Z,1.17
2023-02-17T14:09:12.813Z,0.90
2023-02-17T14:11:47.995Z,1.90
2023-02-17T14:14:17.286Z,2.10
2023-02-17T14:17:03.944Z,1.60
2023-02-17T14:19:51.019Z,1.63
2023-02-17T14:22:28.925Z,1.57
2023-02-17T14:25:10.949Z,1.63
2023-02-17T14:27:43.932Z,3.77
2023-02-17T14:30:22.909Z,1.53
2023-02-17T14:33:03.139Z,1.20
2023-02-17T14:35:45.910Z,1.50
2023-02-17T14:38:29.505Z,1.90
2023-02-17T14:41:05.262Z,1.17
2023-02-17T14:43:34.435Z,0.80
2023-02-17T14:46:10.177Z,1.27
2023-02-17T14:48:39.952Z,2.97
2023-02-17T14:51:20.928Z,1.10
2023-02-17T14:53:49.978Z,2.87
2023-02-17T14:56:29.909Z,0.83
2023-02-17T14:58:58.202Z,2.40
2023-02-17T15:01:33.929Z,2.03
2023-02-17T15:04:03.998Z,1.47
2023-02-17T15:06:43.911Z,1.00
2023-02-17T15:09:21.922Z,1.97
2023-02-17T15:11:50.525Z,1.37
2023-02-17T15:14:26.898Z,1.60
2023-02-17T15:16:55.310Z,1.00
2023-02-17T15:19:30.929Z,1.83
2023-02-17T15:22:01.381Z,1.87
2023-02-17T15:24:40.911Z,1.00
2023-02-17T15:27:13.349Z,3.93
2023-02-17T15:29:47.915Z,1.00
2023-02-17T15:32:19.041Z,2.60
2023-02-17T15:34:54.912Z,1.53
2023-02-17T15:37:30.053Z,2.40
2023-02-17T15:40:05.006Z,1.00
2023-02-17T15:42:33.458Z,3.07
2023-02-17T15:45:10.960Z,1.50
2023-02-17T15:47:40.282Z,1.97
2023-02-17T15:50:23.966Z,2.73
2023-02-17T15:52:52.745Z,2.60
2023-02-17T15:55:29.951Z,3.03
2023-02-17T15:58:00.381Z,1.90
2023-02-17T16:00:37.093Z,4.13
2023-02-17T16:03:05.588Z,1.47
2023-02-17T16:05:41.975Z,3.57
2023-02-17T16:08:10.215Z,3.77
2023-02-17T16:10:46.928Z,2.63
2023-02-17T16:13:19.554Z,2.23
2023-02-17T16:15:58.665Z,3.37
2023-02-17T16:18:27.034Z,2.87
2023-02-17T16:21:03.143Z,2.97
2023-02-17T16:23:31.774Z,3.50
2023-02-17T16:26:07.298Z,3.67
2023-02-17T16:28:35.896Z,3.27
2023-02-17T16:31:11.140Z,2.60
2023-02-17T16:33:39.386Z,3.03
2023-02-17T16:36:30.198Z,4.70
2023-02-17T16:38:58.557Z,2.47
2023-02-17T16:41:33.002Z,3.87
2023-02-17T16:44:01.190Z,3.43
2023-02-17T16:46:40.003Z,2.40
2023-02-17T16:49:27.007Z,4.10
2023-02-17T16:51:57.087Z,2.50
2023-02-17T16:54:33.868Z,3.13
2023-02-17T16:57:03.732Z,3.47
2023-02-17T16:59:38.032Z,3.83
2023-02-17T17:02:06.263Z,4.57
2023-02-17T17:04:40.996Z,3.90
2023-02-17T17:07:16.083Z,5.73
2023-02-17T17:10:14.397Z,4.07
2023-02-17T17:12:39.494Z,4.60
2023-02-17T17:15:15.311Z,6.33
2023-02-17T17:17:47.110Z,3.73
2023-02-17T17:20:25.000Z,3.90
2023-02-17T17:22:54.866Z,4.57
2023-02-17T17:25:30.042Z,5.50
2023-02-17T17:27:58.588Z,4.77
2023-02-17T17:30:36.362Z,5.00
2023-02-17T17:33:05.090Z,4.97
2023-02-17T17:35:47.045Z,5.53
2023-02-17T17:38:23.611Z,4.90
2023-02-17T17:41:00.028Z,4.97
2023-02-17T17:43:28.351Z,5.00
2023-02-17T17:46:03.075Z,4.10
2023-02-17T17:48:31.523Z,4.20
2023-02-17T17:51:07.078Z,4.60
2023-02-17T17:53:36.920Z,6.33
2023-02-17T17:56:12.350Z,5.83
2023-02-17T17:58:40.815Z,5.73
2023-02-17T18:01:17.261Z,5.10
2023-02-17T18:03:45.451Z,4.80
2023-02-17T18:06:25.049Z,4.80
2023-02-17T18:08:56.327Z,5.37
2023-02-17T18:11:33.236Z,5.53
2023-02-17T18:14:05.335Z,5.33
2023-02-17T18:16:43.374Z,5.77
2023-02-17T18:19:13.656Z,6.80
2023-02-17T18:21:48.070Z,6.10
2023-02-17T18:24:18.057Z,5.73
2023-02-17T18:26:53.074Z,5.27
2023-02-17T18:29:21.670Z,5.90
2023-02-17T18:31:56.138Z,5.87
2023-02-17T18:34:44.261Z,7.73
2023-02-17T18:37:19.113Z,6.77
2023-02-17T18:39:48.612Z,5.40
2023-02-17T18:42:23.458Z,5.43
2023-02-17T18:44:52.198Z,5.60
2023-02-17T18:47:28.096Z,5.30
2023-02-17T18:49:56.292Z,5.60
2023-02-17T18:52:31.074Z,11.50
2023-02-17T18:55:00.669Z,7.50
2023-02-17T18:57:35.135Z,5.80
2023-02-17T19:00:04.660Z,4.63
2023-02-17T19:02:39.169Z,7.67
2023-02-17T19:05:08.189Z,4.70
2023-02-17T19:07:43.130Z,5.60
2023-02-17T19:10:13.472Z,4.50
2023-02-17T19:12:48.108Z,5.73
2023-02-17T19:15:21.110Z,4.33
2023-02-17T19:17:57.457Z,4.37
2023-02-17T19:20:28.013Z,5.07
2023-02-17T19:23:03.108Z,4.37
2023-02-17T19:25:32.909Z,4.00
2023-02-17T19:28:07.302Z,4.17
2023-02-17T19:30:35.605Z,4.30
2023-02-17T19:33:10.136Z,4.33
2023-02-17T19:35:59.293Z,4.17
2023-02-17T19:38:27.537Z,5.80
2023-02-17T19:41:03.147Z,4.30
2023-02-17T19:43:31.391Z,4.27
2023-02-17T19:46:06.847Z,5.00
2023-02-17T19:48:35.216Z,4.33
2023-02-17T19:51:11.136Z,4.33
2023-02-17T19:53:39.352Z,4.93
2023-02-17T19:56:19.143Z,4.00
2023-02-17T19:58:48.218Z,4.40
2023-02-17T20:01:25.214Z,4.90
2023-02-17T20:03:54.587Z,8.87
2023-02-17T20:06:32.170Z,6.17
2023-02-17T20:09:02.268Z,5.00
2023-02-17T20:11:39.186Z,5.30
2023-02-17T20:14:08.019Z,5.40
2023-02-17T20:16:43.182Z,5.10
2023-02-17T20:19:11.380Z,5.83
2023-02-17T20:21:49.189Z,5.33
2023-02-17T20:24:17.563Z,6.30
2023-02-17T20:26:55.224Z,6.17
2023-02-17T20:29:23.640Z,5.90
2023-02-17T20:31:58.318Z,6.03
2023-02-17T20:34:30.214Z,6.50
2023-02-17T20:37:13.214Z,6.87
2023-02-17T20:39:42.284Z,7.10
2023-02-17T20:42:18.185Z,7.67
2023-02-17T20:44:48.900Z,7.97
2023-02-17T20:47:23.235Z,9.23
2023-02-17T20:49:51.664Z,9.03
2023-02-17T20:52:26.213Z,9.60
2023-02-17T20:54:54.622Z,9.60
2023-02-17T20:57:31.233Z,9.13
2023-02-17T20:59:59.504Z,9.03
2023-02-17T21:02:34.264Z,10.10
2023-02-17T21:05:02.540Z,9.80
2023-02-17T21:07:37.230Z,9.73
2023-02-17T21:10:06.321Z,9.93
2023-02-17T21:12:42.273Z,10.00
2023-02-17T21:15:11.573Z,10.70
2023-02-17T21:17:46.446Z,10.87
2023-02-17T21:20:16.899Z,10.83
2023-02-17T21:22:52.289Z,10.53
2023-02-17T21:25:20.703Z,10.93
2023-02-17T21:27:57.259Z,9.90
2023-02-17T21:30:26.428Z,9.60
2023-02-17T21:33:03.246Z,9.53
2023-02-17T21:35:40.400Z,9.30
2023-02-17T21:38:23.310Z,9.30
2023-02-17T21:40:52.290Z,10.07
2023-02-17T21:43:46.255Z,9.40
2023-02-17T21:46:14.549Z,8.87
2023-02-17T21:48:49.272Z,9.30
2023-02-17T21:51:18.088Z,10.47
2023-02-17T21:53:53.281Z,10.30
2023-02-17T21:56:22.444Z,9.83
2023-02-17T21:59:00.270Z,9.27
2023-02-17T22:01:29.320Z,8.87
2023-02-17T22:04:05.432Z,9.33
2023-02-17T22:06:35.855Z,9.53
2023-02-17T22:09:12.288Z,9.83
2023-02-17T22:11:42.127Z,9.77
2023-02-17T22:14:21.479Z,9.80
2023-02-17T22:16:51.752Z,10.10
2023-02-17T22:19:31.338Z,10.27
2023-02-17T22:22:06.282Z,9.53
2023-02-17T22:24:34.564Z,9.93
2023-02-17T22:27:09.272Z,10.23
2023-02-17T22:29:38.872Z,9.83
2023-02-17T22:32:13.337Z,10.33
2023-02-17T22:34:41.628Z,10.07
2023-02-17T22:37:24.316Z,10.43
2023-02-17T22:39:54.842Z,9.67
2023-02-17T22:42:30.327Z,11.33
2023-02-17T22:44:59.966Z,11.70
2023-02-17T22:47:34.305Z,11.60
2023-02-17T22:50:02.692Z,11.70
2023-02-17T22:52:38.305Z,12.23
2023-02-17T22:55:07.137Z,12.57
2023-02-17T22:57:42.303Z,12.73
2023-02-17T23:00:13.077Z,13.33
2023-02-17T23:02:48.422Z,12.80
2023-02-17T23:05:16.861Z,13.43
2023-02-17T23:07:51.319Z,13.40
2023-02-17T23:10:20.467Z,13.53
2023-02-17T23:12:55.337Z,14.10
2023-02-17T23:15:39.197Z,13.83
2023-02-17T23:18:14.336Z,13.47
2023-02-17T23:20:44.530Z,14.20
2023-02-17T23:23:20.341Z,13.77
2023-02-17T23:25:52.186Z,14.43
2023-02-17T23:28:28.381Z,13.47
2023-02-17T23:30:58.105Z,14.37
2023-02-17T23:33:33.344Z,13.93
2023-02-17T23:36:23.369Z,14.60
2023-02-17T23:38:58.375Z,14.20
2023-02-17T23:41:26.847Z,15.30
2023-02-17T23:44:01.404Z,14.27
2023-02-17T23:46:31.218Z,14.83
2023-02-17T23:49:06.392Z,15.40
2023-02-17T23:51:34.762Z,14.50
2023-02-17T23:54:09.409Z,15.57
2023-02-17T23:56:38.329Z,14.23
2023-02-17T23:59:13.533Z,15.00
